Paradise Valley, Nevada Weather observations

Data are for 10 minute period ending at time listed.
 Day   Time   Solar   Ave.   Ave.  Ave.  Vector  Max.   Baro.   Total    
  of    of     Rad.   Air    Rel.  Wind   Wind   Wind  Press.  Precip.   
Year   Day            Temp.  Hum.  Speed  Dir.   Gust                    
2016   (PST)  Kw/m2    F      %     mph   deg.    mph    mb.     in.     
-------------------------------------------------------------------------
 210    1:50   0.00   66.5    34    4.1   319     5.6   867.1    0.00 
 210    2:00   0.00   67.2    33    4.8   322     5.7   867.2    0.00 
 210    2:10   0.00   68.5    32    4.6   318     6.6   867.2    0.00 
 210    2:20   0.00   68.3    32    4.3   323     6.5   867.3    0.00 
 210    2:30   0.00   69.5    29    0.8   316     2.6   867.4    0.00 
 210    2:40   0.00   69.5    30    2.2   303     3.8   867.5    0.00 
 210    2:50   0.00   68.4    32    2.6   300     3.7   867.6    0.00 
 210    3:00   0.00   67.4    33    1.9   292     2.9   867.6    0.00 
 210    3:10   0.00   67.7    33    3.1   320     5.3   867.7    0.00 
 210    3:20   0.00   62.9    42    3.8   336     5.6   867.8    0.00 
 210    3:30   0.00   60.6    44    1.7   330     3.8   867.8    0.00 
 210    3:40   0.00   61.0    45    2.3    19     5.7   867.8    0.00 
 210    3:50   0.00   62.0    45    1.6    28     3.9   867.7    0.00 
 210    4:00   0.00   62.9    41    5.0   334     7.0   867.7    0.00 
 210    4:10   0.00   63.8    38    5.4   327     6.9   867.8    0.00 
 210    4:20   0.00   62.7    42    2.6   314     6.1   867.9    0.00 
 210    4:30   0.00   62.9    39    5.1   331    10.6   867.8    0.00 
 210    4:40   0.00   67.4    33    4.7   340     8.3   868.0    0.00 
 210    4:50   0.01   64.1    39    5.0   337     6.5   868.0    0.00 
 210    5:00   0.02   63.7    40    4.1   334     5.9   868.1    0.00 
 210    5:10   0.03   64.2    39    3.5   326     6.0   868.2    0.00 
 210    5:20   0.05   65.8    38    5.9   334     7.8   868.3    0.00 
 210    5:30   0.07   66.1    39    4.6   342     7.6   868.4    0.00 
 210    5:40   0.10   66.9    38    5.2   352     8.0   868.4    0.00 
 210    5:50   0.12   66.8    40    5.0   355     6.6   868.6    0.00 
 210    6:00   0.15   68.9    37    4.8   360     5.9   868.7    0.00 
 210    6:10   0.18   70.4    35    4.7   352     5.8   868.8    0.00 
 210    6:20   0.21   72.0    33    4.9   352     5.9   868.9    0.00 
 210    6:30   0.24   73.3    33    4.0     1     5.0   869.0    0.00 
 210    6:40   0.27   75.0    32    3.6     0     5.3   869.1    0.00 
 210    6:50   0.31   76.0    31    4.3   358     7.4   869.1    0.00 
 210    7:00   0.34   77.2    28    5.4   354     7.4   869.2    0.00 
 210    7:10   0.37   78.1    26    5.3   352     7.7   869.3    0.00 
 210    7:20   0.41   78.9    24    5.6   349     8.2   869.3    0.00 
 210    7:30   0.44   79.8    23    5.4   349     8.0   869.3    0.00 
 210    7:40   0.47   80.3    23    5.2   357     9.0   869.3    0.00 
 210    7:50   0.50   81.1    22    5.4   349     7.5   869.3    0.00 
 210    8:00   0.54   82.2    21    4.4   360     6.2   869.3    0.00 
 210    8:10   0.57   82.8    20    4.6   355     7.0   869.2    0.00 
 210    8:20   0.60   83.9    19    3.8   356     6.4   869.2    0.00 
 210    8:30   0.63   85.2    19    3.8   349     5.9   869.0    0.00 
 210    8:40   0.66   86.1    18    3.7     7     6.4   869.0    0.00 
 210    8:50   0.69   86.8    18    4.4    12     7.5   868.9    0.00 
 210    9:00   0.71   87.1    16    5.2    26     8.5   868.8    0.00 
 210    9:10   0.74   88.2    16    4.1    22     6.4   868.8    0.00 
 210    9:20   0.77   89.0    15    3.4    26     7.3   868.6    0.00 
 210    9:30   0.79   90.0    14    2.4    19     5.7   868.5    0.00 
 210    9:40   0.81   90.3    14    2.5    17     5.1   868.4    0.00 
 210    9:50   0.83   90.6    14    2.0    23     5.0   868.4    0.00 
 210   10:00   0.86   91.4    14    2.7    30     6.3   868.2    0.00 
 210   10:10   0.87   91.8    14    1.8   351     3.9   868.2    0.00 
 210   10:20   0.89   92.4    13    3.5     3     8.2   868.1    0.00 
 210   10:30   0.91   92.5    13    4.0    10     7.8   868.0    0.00 
 210   10:40   0.92   93.0    13    3.6    30     6.9   868.0    0.00 
 210   10:50   0.94   93.6    12    3.5    36     6.4   867.9    0.00 
 210   11:00   0.95   93.9    12    3.7    63     5.7   867.8    0.00 
 210   11:10   0.96   94.5    12    3.3    55     6.9   867.7    0.00 
 210   11:20   0.97   94.5    12    3.9    71     7.0   867.7    0.00 
 210   11:30   0.97   94.8    11    3.8    94     5.8   867.6    0.00 
 210   11:40   0.98   95.1    12    3.6    65     6.3   867.5    0.00 
 210   11:50   0.98   95.1    11    3.9    71     6.9   867.4    0.00 
 210   12:00   0.98   96.0    11    3.7    75     5.8   867.3    0.00 
 210   12:10   0.98   96.0    11    3.7    93     6.6   867.2    0.00 
 210   12:20   0.98   97.1    11    3.6   104     6.5   867.1    0.00 
 210   12:30   0.97   97.2    11    3.7    42     6.4   867.0    0.00 
 210   12:40   0.97   97.1    11    5.0    66     8.3   866.9    0.00 
 210   12:50   0.95   97.4    11    4.4    71     8.6   866.7    0.00 
 210   13:00   0.94   98.2    10    5.0   152     8.8   866.7    0.00 
 210   13:10   0.94  100.2    10    2.2   225     8.4   866.6    0.00 
 210   13:20   0.93  100.0    10    9.3   216    16.1   866.5    0.00 
 210   13:30   0.92   99.5    10    3.4   294     9.1   866.5    0.00 
 210   13:40   0.91   99.7    10    5.5   279    11.8   866.3    0.00 
 210   13:50   0.89   99.0    11    6.9   285    13.3   866.3    0.00 
 210   14:00   0.87   98.9    12    8.6   301    14.0   866.2    0.00 
 210   14:10   0.85   98.8    12    7.6   295    14.8   866.1    0.00 
 210   14:20   0.83   98.9    11   10.2   293    16.3   865.9    0.00 
 210   14:30   0.81   99.0    11   12.0   292    23.5   865.8    0.00 
 210   14:40   0.78   99.1    11    7.0   266    14.8   865.8    0.00 
 210   14:50   0.76  100.1    10    4.4   211    10.4   865.7    0.00 
 210   15:00   0.73  100.5     9    3.6   227    11.8   865.7    0.00 
 210   15:10   0.71  100.4    10    4.7   261    11.2   865.6    0.00 
 210   15:20   0.68  100.4    10    9.8   252    18.0   865.6    0.00 
 210   15:30   0.65   98.4    13   10.1   302    15.4   865.5    0.00 
 210   15:40   0.62   99.0    11    6.3   309    12.9   865.4    0.00 
 210   15:50   0.59   99.4    11    6.9   297    12.6   865.3    0.00 
 210   16:00   0.56   99.7    10    8.1   240    14.5   865.2    0.00 
 210   16:10   0.53   99.7    10    7.5   250    14.3   865.1    0.00 
 210   16:20   0.49  100.0    11    6.2   265    18.8   865.1    0.00 
 210   16:30   0.46   99.7    11    5.5   314     8.8   865.0    0.00 
 210   16:40   0.42   98.0    12    6.0   346     9.8   864.9    0.00 
 210   16:50   0.39   97.8    12    6.1   314    10.7   864.9    0.00 
 210   17:00   0.36   99.1     9    3.9   181     9.6   864.6    0.00 
 210   17:10   0.33   98.9    11    3.1   316     7.3   864.6    0.00 
 210   17:20   0.29   98.6    13    4.1   325     6.4   864.6    0.00 
 210   17:30   0.26   96.4    13    8.2   297    15.2   864.5    0.00 
 210   17:40   0.23   95.6    12    9.1   289    15.5   864.4    0.00 
 210   17:50   0.20   95.8    13    5.9   288     9.5   864.4    0.00 
 210   18:00   0.17   96.1    12    3.3   292    10.8   864.4    0.00 
 210   18:10   0.14   94.7    14    5.3   289    10.4   864.4    0.00 
 210   18:20   0.11   93.4    15    4.2   289     5.8   864.4    0.00 
 210   18:30   0.08   91.0    20    3.7   292     5.4   864.4    0.00 
 210   18:40   0.03   88.2    21    4.0   302     5.3   864.5    0.00 
 210   18:50   0.02   85.2    22    4.5   284     5.6   864.6    0.00 
 210   19:00   0.01   82.8    24    4.9   288     6.0   864.6    0.00 
 210   19:10   0.01   81.4    24    5.0   284     6.6   864.7    0.00 
 210   19:20   0.00   81.3    24    5.5   292     6.1   864.8    0.00 
 210   19:30   0.00   80.8    23    5.8   287     6.2   864.8    0.00 
 210   19:40   0.00   79.5    24    4.9   281     6.1   864.9    0.00 
 210   19:50   0.00   77.9    23    4.8   275     5.9   864.9    0.00 
 210   20:00   0.00   78.0    22    4.9   266     5.7   865.0    0.00 
 210   20:10   0.00   77.2    23    5.4   265     6.0   865.0    0.00 
 210   20:20   0.00   76.7    23    5.2   262     6.3   865.1    0.00 
 210   20:30   0.00   75.3    25    4.9   256     5.3   865.1    0.00 
 210   20:40   0.00   74.6    25    5.3   251     5.8   865.1    0.00 
 210   20:50   0.00   76.2    23    5.7   253     6.1   865.1    0.00 
 210   21:00   0.00   76.1    23    5.6   258     7.4   865.1    0.00 
 210   21:10   0.00   75.9    24    3.1   100     3.8   865.2    0.00 
 210   21:20   0.00   77.3    21    2.0    99     3.9   865.3    0.00 
 210   21:30   0.00   76.4    22    1.1    51     5.2   865.4    0.00 
 210   21:40   0.00   71.3    35    4.4   352     7.2   865.7    0.00 
 210   21:50   0.00   69.7    32    7.5   323    11.3   865.8    0.00 
 210   22:00   0.00   75.2    24    8.9   324    14.0   865.8    0.00 
 210   22:10   0.00   80.3    20   10.1   338    14.0   865.9    0.00 
 210   22:20   0.00   79.9    21    9.0   335    13.2   865.9    0.00 
 210   22:30   0.00   80.2    21    9.3   338    15.5   866.0    0.00 
 210   22:40   0.00   80.9    20    9.1   338    12.6   866.1    0.00 
 210   22:50   0.00   79.2    22    8.2   344    11.4   866.1    0.00 
 210   23:00   0.00   78.8    22    9.0   349    15.3   866.1    0.00 
 210   23:10   0.00   80.7    20    8.7   337    13.1   866.1    0.00 
 210   23:20   0.00   79.7    21    8.6   349    16.1   866.1    0.00 
 210   23:30   0.00   79.1    22    6.8   354    11.7   866.1    0.00 
 210   23:40   0.00   78.0    24    7.1   355    14.1   866.1    0.00 
 210   23:50   0.00   76.1    26    5.4   352     9.8   866.1    0.00 
 211    0:00   0.00   76.4    25    6.4   340    10.3   866.1    0.00 
 211    0:10   0.00   75.3    26    6.8   350    11.6   866.1    0.00 
 211    0:20   0.00   73.4    29    5.9   353     9.1   866.1    0.00 
 211    0:30   0.00   71.7    30    6.2   340     8.1   866.1    0.00 
 211    0:40   0.00   71.3    31    4.9   344     7.0   866.1    0.00 
 211    0:50   0.00   70.4    33    5.3   343     7.5   866.1    0.00 
 211    1:00   0.00   69.9    33    5.4   340     7.2   866.0    0.00 
 211    1:10   0.00   70.6    32    5.8   338     8.0   866.0    0.00 
 211    1:20   0.00   71.5    30    6.3   338     8.2   866.0    0.00 
 211    1:30   0.00   71.5    30    6.8   334     8.7   866.0    0.00 
 211    1:40   0.00   71.1    30    5.7   335     8.3   866.1    0.00 

Return to Paradise Valley graphs page.


Western Regional Climate Center,wrcc@dri.edu